sensor_id;sensor_type;location;lat;lon;timestamp;temperature;humidity
25332;DHT22;13284;52.748;13.452;2022-10-16T00:01:23;14.80;99.90
25332;DHT22;13284;52.748;13.452;2022-10-16T00:03:49;14.80;99.90
25332;DHT22;13284;52.748;13.452;2022-10-16T00:06:16;14.90;99.90
25332;DHT22;13284;52.748;13.452;2022-10-16T00:08:42;14.90;99.90
25332;DHT22;13284;52.748;13.452;2022-10-16T00:11:13;14.90;99.90
25332;DHT22;13284;52.748;13.452;2022-10-16T00:13:40;15.00;99.90
25332;DHT22;13284;52.748;13.452;2022-10-16T00:16:07;15.00;99.90
25332;DHT22;13284;52.748;13.452;2022-10-16T00:18:33;15.10;99.90
25332;DHT22;13284;52.748;13.452;2022-10-16T00:21:18;15.10;99.90
25332;DHT22;13284;52.748;13.452;2022-10-16T00:23:44;15.20;99.90
25332;DHT22;13284;52.748;13.452;2022-10-16T00:26:13;15.20;99.90
25332;DHT22;13284;52.748;13.452;2022-10-16T00:28:39;15.20;99.90
25332;DHT22;13284;52.748;13.452;2022-10-16T00:31:06;15.20;99.90
25332;DHT22;13284;52.748;13.452;2022-10-16T00:33:33;15.20;99.90
25332;DHT22;13284;52.748;13.452;2022-10-16T00:35:59;15.20;99.90
25332;DHT22;13284;52.748;13.452;2022-10-16T00:38:25;15.20;99.90
25332;DHT22;13284;52.748;13.452;2022-10-16T00:40:51;15.20;99.90
25332;DHT22;13284;52.748;13.452;2022-10-16T00:46:15;15.10;99.90
25332;DHT22;13284;52.748;13.452;2022-10-16T00:48:48;15.20;99.90
25332;DHT22;13284;52.748;13.452;2022-10-16T00:51:14;15.10;99.90
25332;DHT22;13284;52.748;13.452;2022-10-16T00:53:39;15.10;99.90
25332;DHT22;13284;52.748;13.452;2022-10-16T00:56:05;15.10;99.90
25332;DHT22;13284;52.748;13.452;2022-10-16T00:58:31;15.10;99.90
25332;DHT22;13284;52.748;13.452;2022-10-16T01:00:57;15.10;99.90
25332;DHT22;13284;52.748;13.452;2022-10-16T01:03:29;15.20;99.90
25332;DHT22;13284;52.748;13.452;2022-10-16T01:06:23;15.20;99.90
25332;DHT22;13284;52.748;13.452;2022-10-16T01:09:11;15.20;99.90
25332;DHT22;13284;52.748;13.452;2022-10-16T01:11:57;15.30;99.90
25332;DHT22;13284;52.748;13.452;2022-10-16T01:14:40;15.20;99.90
25332;DHT22;13284;52.748;13.452;2022-10-16T01:17:33;15.30;99.90
25332;DHT22;13284;52.748;13.452;2022-10-16T01:20:06;15.30;99.90
25332;DHT22;13284;52.748;13.452;2022-10-16T01:22:44;15.30;99.90
25332;DHT22;13284;52.748;13.452;2022-10-16T01:25:25;15.30;99.90
25332;DHT22;13284;52.748;13.452;2022-10-16T01:27:51;15.30;99.90
25332;DHT22;13284;52.748;13.452;2022-10-16T01:30:23;15.30;99.90
25332;DHT22;13284;52.748;13.452;2022-10-16T01:35:45;15.30;99.90
25332;DHT22;13284;52.748;13.452;2022-10-16T01:38:17;15.30;99.90
25332;DHT22;13284;52.748;13.452;2022-10-16T01:40:54;15.30;99.90
25332;DHT22;13284;52.748;13.452;2022-10-16T01:43:30;15.30;99.90
25332;DHT22;13284;52.748;13.452;2022-10-16T01:45:59;15.20;99.90
25332;DHT22;13284;52.748;13.452;2022-10-16T01:48:25;15.30;99.90
25332;DHT22;13284;52.748;13.452;2022-10-16T01:50:59;15.30;99.90
25332;DHT22;13284;52.748;13.452;2022-10-16T01:53:26;15.30;99.90
25332;DHT22;13284;52.748;13.452;2022-10-16T01:55:54;15.30;99.90
25332;DHT22;13284;52.748;13.452;2022-10-16T01:58:22;15.30;99.90
25332;DHT22;13284;52.748;13.452;2022-10-16T02:00:49;15.30;99.90
25332;DHT22;13284;52.748;13.452;2022-10-16T02:03:17;15.30;99.90
25332;DHT22;13284;52.748;13.452;2022-10-16T02:05:53;15.30;99.90
25332;DHT22;13284;52.748;13.452;2022-10-16T02:08:19;15.30;99.90
25332;DHT22;13284;52.748;13.452;2022-10-16T02:10:45;15.30;99.90
25332;DHT22;13284;52.748;13.452;2022-10-16T02:13:18;15.30;99.90
25332;DHT22;13284;52.748;13.452;2022-10-16T02:15:45;15.30;99.90
25332;DHT22;13284;52.748;13.452;2022-10-16T02:18:10;15.20;99.90
25332;DHT22;13284;52.748;13.452;2022-10-16T02:20:43;15.20;99.90
25332;DHT22;13284;52.748;13.452;2022-10-16T02:23:19;15.20;99.90
25332;DHT22;13284;52.748;13.452;2022-10-16T02:25:50;15.20;99.90
25332;DHT22;13284;52.748;13.452;2022-10-16T02:28:21;15.20;99.90
25332;DHT22;13284;52.748;13.452;2022-10-16T02:30:52;15.20;99.90
25332;DHT22;13284;52.748;13.452;2022-10-16T02:33:21;15.20;99.90
25332;DHT22;13284;52.748;13.452;2022-10-16T02:35:49;15.20;99.90
25332;DHT22;13284;52.748;13.452;2022-10-16T02:38:16;15.20;99.90
25332;DHT22;13284;52.748;13.452;2022-10-16T02:40:42;15.20;99.90
25332;DHT22;13284;52.748;13.452;2022-10-16T02:43:08;15.20;99.90
25332;DHT22;13284;52.748;13.452;2022-10-16T02:45:34;15.10;99.90
25332;DHT22;13284;52.748;13.452;2022-10-16T02:48:00;15.10;99.90
25332;DHT22;13284;52.748;13.452;2022-10-16T02:50:26;15.10;99.90
25332;DHT22;13284;52.748;13.452;2022-10-16T02:52:51;15.10;99.90
25332;DHT22;13284;52.748;13.452;2022-10-16T02:55:16;15.10;99.90
25332;DHT22;13284;52.748;13.452;2022-10-16T02:57:42;15.00;99.90
25332;DHT22;13284;52.748;13.452;2022-10-16T03:00:09;15.00;99.90
25332;DHT22;13284;52.748;13.452;2022-10-16T03:02:36;14.90;99.90
25332;DHT22;13284;52.748;13.452;2022-10-16T03:05:02;14.90;99.90
25332;DHT22;13284;52.748;13.452;2022-10-16T03:07:28;14.90;99.90
25332;DHT22;13284;52.748;13.452;2022-10-16T03:09:53;14.90;99.90
25332;DHT22;13284;52.748;13.452;2022-10-16T03:12:20;14.90;99.90
25332;DHT22;13284;52.748;13.452;2022-10-16T03:14:46;14.90;99.90
25332;DHT22;13284;52.748;13.452;2022-10-16T03:17:11;14.90;99.90
25332;DHT22;13284;52.748;13.452;2022-10-16T03:19:38;14.90;99.90
25332;DHT22;13284;52.748;13.452;2022-10-16T03:22:04;14.80;99.90
25332;DHT22;13284;52.748;13.452;2022-10-16T03:24:29;14.80;99.90
25332;DHT22;13284;52.748;13.452;2022-10-16T03:26:55;14.80;99.90
25332;DHT22;13284;52.748;13.452;2022-10-16T03:29:20;14.80;99.90
25332;DHT22;13284;52.748;13.452;2022-10-16T03:31:45;14.80;99.90
25332;DHT22;13284;52.748;13.452;2022-10-16T03:34:13;14.80;99.90
25332;DHT22;13284;52.748;13.452;2022-10-16T03:36:39;14.70;99.90
25332;DHT22;13284;52.748;13.452;2022-10-16T03:39:04;14.70;99.90
25332;DHT22;13284;52.748;13.452;2022-10-16T03:41:30;14.70;99.90
25332;DHT22;13284;52.748;13.452;2022-10-16T03:43:55;14.70;99.90
25332;DHT22;13284;52.748;13.452;2022-10-16T03:46:21;14.70;99.90
25332;DHT22;13284;52.748;13.452;2022-10-16T03:48:46;14.70;99.90
25332;DHT22;13284;52.748;13.452;2022-10-16T03:51:12;14.70;99.90
25332;DHT22;13284;52.748;13.452;2022-10-16T03:53:37;14.60;99.90
25332;DHT22;13284;52.748;13.452;2022-10-16T03:56:03;14.60;99.90
25332;DHT22;13284;52.748;13.452;2022-10-16T03:58:28;14.70;99.90
25332;DHT22;13284;52.748;13.452;2022-10-16T04:00:54;14.70;99.90
25332;DHT22;13284;52.748;13.452;2022-10-16T04:03:19;14.60;99.90
25332;DHT22;13284;52.748;13.452;2022-10-16T04:05:46;14.60;99.90
25332;DHT22;13284;52.748;13.452;2022-10-16T04:08:12;14.60;99.90
25332;DHT22;13284;52.748;13.452;2022-10-16T04:10:37;14.50;99.90
25332;DHT22;13284;52.748;13.452;2022-10-16T04:13:03;14.40;99.90
25332;DHT22;13284;52.748;13.452;2022-10-16T04:15:28;14.40;99.90
25332;DHT22;13284;52.748;13.452;2022-10-16T04:17:54;14.40;99.90
25332;DHT22;13284;52.748;13.452;2022-10-16T04:20:19;14.40;99.90
25332;DHT22;13284;52.748;13.452;2022-10-16T04:22:45;14.30;99.90
25332;DHT22;13284;52.748;13.452;2022-10-16T04:25:11;14.30;99.90
25332;DHT22;13284;52.748;13.452;2022-10-16T04:27:37;14.20;99.90
25332;DHT22;13284;52.748;13.452;2022-10-16T04:30:04;14.20;99.90
25332;DHT22;13284;52.748;13.452;2022-10-16T04:32:30;14.20;99.90
25332;DHT22;13284;52.748;13.452;2022-10-16T04:34:55;14.20;99.90
25332;DHT22;13284;52.748;13.452;2022-10-16T04:37:25;14.10;99.90
25332;DHT22;13284;52.748;13.452;2022-10-16T04:39:51;14.10;99.90
25332;DHT22;13284;52.748;13.452;2022-10-16T04:42:17;14.10;99.90
25332;DHT22;13284;52.748;13.452;2022-10-16T04:44:42;14.10;99.90
25332;DHT22;13284;52.748;13.452;2022-10-16T04:47:08;14.00;99.90
25332;DHT22;13284;52.748;13.452;2022-10-16T04:49:33;14.00;99.90
25332;DHT22;13284;52.748;13.452;2022-10-16T04:51:59;14.00;99.90
25332;DHT22;13284;52.748;13.452;2022-10-16T04:54:24;14.00;99.90
25332;DHT22;13284;52.748;13.452;2022-10-16T04:56:50;14.00;99.90
25332;DHT22;13284;52.748;13.452;2022-10-16T04:59:18;14.00;99.90
25332;DHT22;13284;52.748;13.452;2022-10-16T05:01:44;14.00;99.90
25332;DHT22;13284;52.748;13.452;2022-10-16T05:04:10;13.90;99.90
25332;DHT22;13284;52.748;13.452;2022-10-16T05:06:36;14.00;99.90
25332;DHT22;13284;52.748;13.452;2022-10-16T05:09:02;14.00;99.90
25332;DHT22;13284;52.748;13.452;2022-10-16T05:11:28;13.90;99.90
25332;DHT22;13284;52.748;13.452;2022-10-16T05:13:53;13.90;99.90
25332;DHT22;13284;52.748;13.452;2022-10-16T05:16:19;13.90;99.90
25332;DHT22;13284;52.748;13.452;2022-10-16T05:18:44;13.80;99.90
25332;DHT22;13284;52.748;13.452;2022-10-16T05:21:10;13.80;99.90
25332;DHT22;13284;52.748;13.452;2022-10-16T05:23:35;13.70;99.90
25332;DHT22;13284;52.748;13.452;2022-10-16T05:26:01;13.80;99.90
25332;DHT22;13284;52.748;13.452;2022-10-16T05:28:27;13.70;99.90
25332;DHT22;13284;52.748;13.452;2022-10-16T05:30:54;13.70;99.90
25332;DHT22;13284;52.748;13.452;2022-10-16T05:33:20;13.80;99.90
25332;DHT22;13284;52.748;13.452;2022-10-16T05:35:46;13.80;99.90
25332;DHT22;13284;52.748;13.452;2022-10-16T05:38:12;13.80;99.90
25332;DHT22;13284;52.748;13.452;2022-10-16T05:40:37;13.80;99.90
25332;DHT22;13284;52.748;13.452;2022-10-16T05:43:03;13.80;99.90
25332;DHT22;13284;52.748;13.452;2022-10-16T05:45:28;13.90;99.90
25332;DHT22;13284;52.748;13.452;2022-10-16T05:47:54;13.90;99.90
25332;DHT22;13284;52.748;13.452;2022-10-16T05:50:19;13.90;99.90
25332;DHT22;13284;52.748;13.452;2022-10-16T05:52:45;14.00;99.90
25332;DHT22;13284;52.748;13.452;2022-10-16T05:55:10;14.10;99.90
25332;DHT22;13284;52.748;13.452;2022-10-16T05:57:36;14.10;99.90
25332;DHT22;13284;52.748;13.452;2022-10-16T06:00:03;14.10;99.90
25332;DHT22;13284;52.748;13.452;2022-10-16T06:02:28;14.20;99.90
25332;DHT22;13284;52.748;13.452;2022-10-16T06:04:54;14.20;99.90
25332;DHT22;13284;52.748;13.452;2022-10-16T06:07:20;14.30;99.90
25332;DHT22;13284;52.748;13.452;2022-10-16T06:09:50;14.30;99.90
25332;DHT22;13284;52.748;13.452;2022-10-16T06:12:16;14.30;99.90
25332;DHT22;13284;52.748;13.452;2022-10-16T06:14:42;14.30;99.90
25332;DHT22;13284;52.748;13.452;2022-10-16T06:17:07;14.40;99.90
25332;DHT22;13284;52.748;13.452;2022-10-16T06:19:33;14.40;99.90
25332;DHT22;13284;52.748;13.452;2022-10-16T06:21:58;14.50;99.90
25332;DHT22;13284;52.748;13.452;2022-10-16T06:24:24;14.50;99.90
25332;DHT22;13284;52.748;13.452;2022-10-16T06:26:50;14.50;99.90
25332;DHT22;13284;52.748;13.452;2022-10-16T06:29:16;14.60;99.90
25332;DHT22;13284;52.748;13.452;2022-10-16T06:31:41;14.60;99.90
25332;DHT22;13284;52.748;13.452;2022-10-16T06:34:09;14.70;99.90
25332;DHT22;13284;52.748;13.452;2022-10-16T06:36:36;14.70;99.90
25332;DHT22;13284;52.748;13.452;2022-10-16T06:39:02;14.70;99.90
25332;DHT22;13284;52.748;13.452;2022-10-16T06:41:28;14.80;99.90
25332;DHT22;13284;52.748;13.452;2022-10-16T06:43:53;14.80;99.90
25332;DHT22;13284;52.748;13.452;2022-10-16T06:46:21;14.80;99.90
25332;DHT22;13284;52.748;13.452;2022-10-16T06:48:48;14.90;99.90
25332;DHT22;13284;52.748;13.452;2022-10-16T06:51:16;14.90;99.90
25332;DHT22;13284;52.748;13.452;2022-10-16T06:53:47;14.90;99.90
25332;DHT22;13284;52.748;13.452;2022-10-16T06:56:19;14.90;99.90
25332;DHT22;13284;52.748;13.452;2022-10-16T06:58:46;15.00;99.90
25332;DHT22;13284;52.748;13.452;2022-10-16T07:01:13;15.00;99.90
25332;DHT22;13284;52.748;13.452;2022-10-16T07:03:40;15.00;99.90
25332;DHT22;13284;52.748;13.452;2022-10-16T07:06:07;15.00;99.90
25332;DHT22;13284;52.748;13.452;2022-10-16T07:08:34;15.10;99.90
25332;DHT22;13284;52.748;13.452;2022-10-16T07:11:02;15.10;99.90
25332;DHT22;13284;52.748;13.452;2022-10-16T07:13:28;15.10;99.90
25332;DHT22;13284;52.748;13.452;2022-10-16T07:15:54;15.20;99.90
25332;DHT22;13284;52.748;13.452;2022-10-16T07:18:19;15.20;99.90
25332;DHT22;13284;52.748;13.452;2022-10-16T07:20:45;15.30;99.90
25332;DHT22;13284;52.748;13.452;2022-10-16T07:23:10;15.30;99.90
25332;DHT22;13284;52.748;13.452;2022-10-16T07:25:35;15.40;99.90
25332;DHT22;13284;52.748;13.452;2022-10-16T07:28:01;15.50;99.90
25332;DHT22;13284;52.748;13.452;2022-10-16T07:30:26;15.50;99.90
25332;DHT22;13284;52.748;13.452;2022-10-16T07:32:52;15.60;99.90
25332;DHT22;13284;52.748;13.452;2022-10-16T07:35:17;15.60;99.90
25332;DHT22;13284;52.748;13.452;2022-10-16T07:37:46;15.70;99.90
25332;DHT22;13284;52.748;13.452;2022-10-16T07:40:12;15.70;99.90
25332;DHT22;13284;52.748;13.452;2022-10-16T07:42:37;15.80;99.90
25332;DHT22;13284;52.748;13.452;2022-10-16T07:45:03;15.80;99.90
25332;DHT22;13284;52.748;13.452;2022-10-16T07:47:29;16.00;99.90
25332;DHT22;13284;52.748;13.452;2022-10-16T07:49:54;16.00;99.90
25332;DHT22;13284;52.748;13.452;2022-10-16T07:52:23;16.10;99.90
25332;DHT22;13284;52.748;13.452;2022-10-16T07:54:52;16.10;99.90
25332;DHT22;13284;52.748;13.452;2022-10-16T07:57:17;16.20;99.90
25332;DHT22;13284;52.748;13.452;2022-10-16T07:59:45;16.10;99.90
25332;DHT22;13284;52.748;13.452;2022-10-16T08:02:11;16.20;99.90
25332;DHT22;13284;52.748;13.452;2022-10-16T08:04:37;16.20;99.90
25332;DHT22;13284;52.748;13.452;2022-10-16T08:07:03;16.30;99.90
25332;DHT22;13284;52.748;13.452;2022-10-16T08:09:28;16.40;99.90
25332;DHT22;13284;52.748;13.452;2022-10-16T08:11:53;16.50;99.90
25332;DHT22;13284;52.748;13.452;2022-10-16T08:14:19;16.70;99.90
25332;DHT22;13284;52.748;13.452;2022-10-16T08:16:44;16.80;99.90
25332;DHT22;13284;52.748;13.452;2022-10-16T08:19:10;16.90;99.90
25332;DHT22;13284;52.748;13.452;2022-10-16T08:21:35;16.80;99.90
25332;DHT22;13284;52.748;13.452;2022-10-16T08:24:01;16.90;99.90
25332;DHT22;13284;52.748;13.452;2022-10-16T08:26:26;16.80;99.90
25332;DHT22;13284;52.748;13.452;2022-10-16T08:28:52;16.80;99.90
25332;DHT22;13284;52.748;13.452;2022-10-16T08:31:17;16.80;99.90
25332;DHT22;13284;52.748;13.452;2022-10-16T08:33:44;17.00;99.90
25332;DHT22;13284;52.748;13.452;2022-10-16T08:36:12;17.00;99.90
25332;DHT22;13284;52.748;13.452;2022-10-16T08:38:38;17.00;99.90
25332;DHT22;13284;52.748;13.452;2022-10-16T08:48:51;17.30;99.90
25332;DHT22;13284;52.748;13.452;2022-10-16T08:51:24;17.20;99.90
25332;DHT22;13284;52.748;13.452;2022-10-16T08:54:02;17.30;99.90
25332;DHT22;13284;52.748;13.452;2022-10-16T08:56:28;17.30;99.90
25332;DHT22;13284;52.748;13.452;2022-10-16T08:58:55;17.30;99.90
25332;DHT22;13284;52.748;13.452;2022-10-16T09:01:22;17.40;99.90
25332;DHT22;13284;52.748;13.452;2022-10-16T09:06:56;17.60;99.90
25332;DHT22;13284;52.748;13.452;2022-10-16T09:12:37;17.70;99.90
25332;DHT22;13284;52.748;13.452;2022-10-16T09:15:29;17.60;99.90
25332;DHT22;13284;52.748;13.452;2022-10-16T09:18:12;17.70;99.90
25332;DHT22;13284;52.748;13.452;2022-10-16T09:21:31;17.60;99.90
25332;DHT22;13284;52.748;13.452;2022-10-16T09:23:38;17.50;99.90
25332;DHT22;13284;52.748;13.452;2022-10-16T09:26:05;17.60;99.90
25332;DHT22;13284;52.748;13.452;2022-10-16T09:28:30;17.70;99.90
25332;DHT22;13284;52.748;13.452;2022-10-16T09:30:56;17.70;99.90
25332;DHT22;13284;52.748;13.452;2022-10-16T09:33:28;17.70;99.90
25332;DHT22;13284;52.748;13.452;2022-10-16T09:35:56;17.70;99.90
25332;DHT22;13284;52.748;13.452;2022-10-16T09:38:32;17.90;99.90
25332;DHT22;13284;52.748;13.452;2022-10-16T09:41:13;18.00;99.90
25332;DHT22;13284;52.748;13.452;2022-10-16T09:43:42;18.20;99.90
25332;DHT22;13284;52.748;13.452;2022-10-16T09:46:27;18.50;99.90
25332;DHT22;13284;52.748;13.452;2022-10-16T09:49:24;18.80;99.90
25332;DHT22;13284;52.748;13.452;2022-10-16T09:51:51;18.80;99.90
25332;DHT22;13284;52.748;13.452;2022-10-16T09:54:27;18.70;99.90
25332;DHT22;13284;52.748;13.452;2022-10-16T09:57:03;18.60;99.90
25332;DHT22;13284;52.748;13.452;2022-10-16T09:59:29;18.50;99.90
25332;DHT22;13284;52.748;13.452;2022-10-16T10:02:00;18.50;99.90
25332;DHT22;13284;52.748;13.452;2022-10-16T10:04:38;18.40;99.90
25332;DHT22;13284;52.748;13.452;2022-10-16T10:07:05;18.40;99.90
25332;DHT22;13284;52.748;13.452;2022-10-16T10:09:38;18.60;99.90
25332;DHT22;13284;52.748;13.452;2022-10-16T10:12:05;18.90;99.90
25332;DHT22;13284;52.748;13.452;2022-10-16T10:14:35;18.90;99.90
25332;DHT22;13284;52.748;13.452;2022-10-16T10:19:36;19.00;99.90
25332;DHT22;13284;52.748;13.452;2022-10-16T10:22:21;19.10;99.90
25332;DHT22;13284;52.748;13.452;2022-10-16T10:25:01;19.00;99.90
25332;DHT22;13284;52.748;13.452;2022-10-16T10:30:10;19.00;99.90
25332;DHT22;13284;52.748;13.452;2022-10-16T10:32:54;19.20;99.90
25332;DHT22;13284;52.748;13.452;2022-10-16T10:35:36;19.10;99.90
25332;DHT22;13284;52.748;13.452;2022-10-16T10:38:26;19.00;99.90
25332;DHT22;13284;52.748;13.452;2022-10-16T10:41:03;19.00;99.90
25332;DHT22;13284;52.748;13.452;2022-10-16T10:46:43;19.30;99.90
25332;DHT22;13284;52.748;13.452;2022-10-16T10:49:13;19.30;99.90
25332;DHT22;13284;52.748;13.452;2022-10-16T10:55:01;19.20;99.90
25332;DHT22;13284;52.748;13.452;2022-10-16T10:57:52;19.00;99.90
25332;DHT22;13284;52.748;13.452;2022-10-16T11:00:44;19.00;99.90
25332;DHT22;13284;52.748;13.452;2022-10-16T11:03:43;19.00;99.90
25332;DHT22;13284;52.748;13.452;2022-10-16T11:06:48;19.10;99.90
25332;DHT22;13284;52.748;13.452;2022-10-16T11:09:11;19.20;99.90
25332;DHT22;13284;52.748;13.452;2022-10-16T11:11:42;19.20;99.90
25332;DHT22;13284;52.748;13.452;2022-10-16T11:14:19;19.20;99.90
25332;DHT22;13284;52.748;13.452;2022-10-16T11:16:52;19.30;99.90
25332;DHT22;13284;52.748;13.452;2022-10-16T11:19:54;19.10;99.90
25332;DHT22;13284;52.748;13.452;2022-10-16T11:22:39;19.00;99.90
25332;DHT22;13284;52.748;13.452;2022-10-16T11:30:28;19.10;99.90
25332;DHT22;13284;52.748;13.452;2022-10-16T11:35:49;20.30;99.90
25332;DHT22;13284;52.748;13.452;2022-10-16T11:43:43;20.70;99.90
25332;DHT22;13284;52.748;13.452;2022-10-16T11:46:15;20.60;99.90
25332;DHT22;13284;52.748;13.452;2022-10-16T11:49:06;20.60;99.90
25332;DHT22;13284;52.748;13.452;2022-10-16T11:51:48;20.70;99.90
25332;DHT22;13284;52.748;13.452;2022-10-16T11:54:22;20.10;99.90
25332;DHT22;13284;52.748;13.452;2022-10-16T11:56:52;20.40;99.90
25332;DHT22;13284;52.748;13.452;2022-10-16T12:08:11;20.90;99.90
25332;DHT22;13284;52.748;13.452;2022-10-16T12:10:40;21.30;99.90
25332;DHT22;13284;52.748;13.452;2022-10-16T12:13:33;21.20;99.90
25332;DHT22;13284;52.748;13.452;2022-10-16T12:18:31;20.90;99.90
25332;DHT22;13284;52.748;13.452;2022-10-16T12:20:57;20.70;99.90
25332;DHT22;13284;52.748;13.452;2022-10-16T12:23:25;20.70;99.90
25332;DHT22;13284;52.748;13.452;2022-10-16T12:25:55;21.00;99.90
25332;DHT22;13284;52.748;13.452;2022-10-16T12:28:26;20.50;99.90
25332;DHT22;13284;52.748;13.452;2022-10-16T12:30:55;20.00;99.90
25332;DHT22;13284;52.748;13.452;2022-10-16T12:33:33;19.70;99.90
25332;DHT22;13284;52.748;13.452;2022-10-16T12:36:02;19.60;99.90
25332;DHT22;13284;52.748;13.452;2022-10-16T12:38:59;19.60;99.90
25332;DHT22;13284;52.748;13.452;2022-10-16T12:41:28;19.60;99.90
25332;DHT22;13284;52.748;13.452;2022-10-16T12:43:54;19.70;99.90
25332;DHT22;13284;52.748;13.452;2022-10-16T12:46:40;20.40;99.90
25332;DHT22;13284;52.748;13.452;2022-10-16T12:54:48;19.60;99.90
25332;DHT22;13284;52.748;13.452;2022-10-16T12:57:36;19.40;99.90
25332;DHT22;13284;52.748;13.452;2022-10-16T13:06:36;19.20;99.90
25332;DHT22;13284;52.748;13.452;2022-10-16T13:09:22;19.10;99.90
25332;DHT22;13284;52.748;13.452;2022-10-16T13:20:12;19.00;99.90
25332;DHT22;13284;52.748;13.452;2022-10-16T13:22:49;19.00;99.90
25332;DHT22;13284;52.748;13.452;2022-10-16T13:28:06;20.20;99.90
25332;DHT22;13284;52.748;13.452;2022-10-16T13:30:41;21.10;99.90
25332;DHT22;13284;52.748;13.452;2022-10-16T13:40:19;20.80;99.90
25332;DHT22;13284;52.748;13.452;2022-10-16T13:46:25;20.20;99.90
25332;DHT22;13284;52.748;13.452;2022-10-16T13:49:11;19.70;99.90
25332;DHT22;13284;52.748;13.452;2022-10-16T13:51:37;19.40;99.90
25332;DHT22;13284;52.748;13.452;2022-10-16T13:54:03;19.40;99.90
25332;DHT22;13284;52.748;13.452;2022-10-16T13:56:32;19.90;99.90
25332;DHT22;13284;52.748;13.452;2022-10-16T14:01:31;20.40;99.90
25332;DHT22;13284;52.748;13.452;2022-10-16T14:04:02;20.50;99.90
25332;DHT22;13284;52.748;13.452;2022-10-16T14:06:30;20.70;99.90
25332;DHT22;13284;52.748;13.452;2022-10-16T14:09:26;20.70;99.90
25332;DHT22;13284;52.748;13.452;2022-10-16T14:14:21;20.60;99.90
25332;DHT22;13284;52.748;13.452;2022-10-16T14:16:48;20.40;99.90
25332;DHT22;13284;52.748;13.452;2022-10-16T14:19:27;20.30;99.90
25332;DHT22;13284;52.748;13.452;2022-10-16T14:21:53;20.10;99.90
25332;DHT22;13284;52.748;13.452;2022-10-16T14:26:57;19.80;99.90
25332;DHT22;13284;52.748;13.452;2022-10-16T14:29:25;20.10;99.90
25332;DHT22;13284;52.748;13.452;2022-10-16T14:38:01;20.10;99.90
25332;DHT22;13284;52.748;13.452;2022-10-16T14:40:36;20.00;99.90
25332;DHT22;13284;52.748;13.452;2022-10-16T14:43:03;19.80;99.90
25332;DHT22;13284;52.748;13.452;2022-10-16T14:45:34;19.80;99.90
25332;DHT22;13284;52.748;13.452;2022-10-16T14:48:04;19.80;99.90
25332;DHT22;13284;52.748;13.452;2022-10-16T14:50:31;19.80;99.90
25332;DHT22;13284;52.748;13.452;2022-10-16T14:52:58;19.80;99.90
25332;DHT22;13284;52.748;13.452;2022-10-16T14:55:25;19.80;99.90
25332;DHT22;13284;52.748;13.452;2022-10-16T14:57:51;19.70;99.90
25332;DHT22;13284;52.748;13.452;2022-10-16T15:00:22;19.70;99.90
25332;DHT22;13284;52.748;13.452;2022-10-16T15:02:50;19.70;99.90
25332;DHT22;13284;52.748;13.452;2022-10-16T15:05:19;19.60;99.90
25332;DHT22;13284;52.748;13.452;2022-10-16T15:07:46;19.50;99.90
25332;DHT22;13284;52.748;13.452;2022-10-16T15:10:13;19.30;99.90
25332;DHT22;13284;52.748;13.452;2022-10-16T15:12:40;19.30;99.90
25332;DHT22;13284;52.748;13.452;2022-10-16T15:18:01;19.10;99.90
25332;DHT22;13284;52.748;13.452;2022-10-16T15:20:30;19.00;99.90
25332;DHT22;13284;52.748;13.452;2022-10-16T15:23:00;18.90;99.90
25332;DHT22;13284;52.748;13.452;2022-10-16T15:27:58;18.70;99.90
25332;DHT22;13284;52.748;13.452;2022-10-16T15:30:25;18.40;99.90
25332;DHT22;13284;52.748;13.452;2022-10-16T15:32:51;18.40;99.90
25332;DHT22;13284;52.748;13.452;2022-10-16T15:35:17;18.30;99.90
25332;DHT22;13284;52.748;13.452;2022-10-16T15:37:43;18.20;99.90
25332;DHT22;13284;52.748;13.452;2022-10-16T15:40:10;18.00;99.90
25332;DHT22;13284;52.748;13.452;2022-10-16T15:42:36;18.00;99.90
25332;DHT22;13284;52.748;13.452;2022-10-16T15:45:02;17.80;99.90
25332;DHT22;13284;52.748;13.452;2022-10-16T15:47:29;17.70;99.90
25332;DHT22;13284;52.748;13.452;2022-10-16T15:49:55;17.50;99.90
25332;DHT22;13284;52.748;13.452;2022-10-16T15:52:24;17.40;99.90
25332;DHT22;13284;52.748;13.452;2022-10-16T15:54:50;17.30;99.90
25332;DHT22;13284;52.748;13.452;2022-10-16T15:57:18;17.10;99.90
25332;DHT22;13284;52.748;13.452;2022-10-16T15:59:44;17.10;99.90
25332;DHT22;13284;52.748;13.452;2022-10-16T16:02:11;17.00;99.90
25332;DHT22;13284;52.748;13.452;2022-10-16T16:04:39;16.90;99.90
25332;DHT22;13284;52.748;13.452;2022-10-16T16:07:05;16.80;99.90
25332;DHT22;13284;52.748;13.452;2022-10-16T16:09:33;16.70;99.90
25332;DHT22;13284;52.748;13.452;2022-10-16T16:12:02;16.60;99.90
25332;DHT22;13284;52.748;13.452;2022-10-16T16:14:28;16.50;99.90
25332;DHT22;13284;52.748;13.452;2022-10-16T16:16:55;16.40;99.90
25332;DHT22;13284;52.748;13.452;2022-10-16T16:19:24;16.30;99.90
25332;DHT22;13284;52.748;13.452;2022-10-16T16:21:50;16.20;99.90
25332;DHT22;13284;52.748;13.452;2022-10-16T16:24:16;16.20;99.90
25332;DHT22;13284;52.748;13.452;2022-10-16T16:26:42;16.00;99.90
25332;DHT22;13284;52.748;13.452;2022-10-16T16:29:12;15.90;99.90
25332;DHT22;13284;52.748;13.452;2022-10-16T16:31:39;15.80;99.90
25332;DHT22;13284;52.748;13.452;2022-10-16T16:34:06;15.70;99.90
25332;DHT22;13284;52.748;13.452;2022-10-16T16:36:36;15.70;99.90
25332;DHT22;13284;52.748;13.452;2022-10-16T16:39:02;15.50;99.90
25332;DHT22;13284;52.748;13.452;2022-10-16T16:41:29;15.50;99.90
25332;DHT22;13284;52.748;13.452;2022-10-16T16:44:01;15.40;99.90
25332;DHT22;13284;52.748;13.452;2022-10-16T16:46:27;15.30;99.90
25332;DHT22;13284;52.748;13.452;2022-10-16T16:48:53;15.00;99.90
25332;DHT22;13284;52.748;13.452;2022-10-16T16:51:21;14.90;99.90
25332;DHT22;13284;52.748;13.452;2022-10-16T16:53:49;14.80;99.90
25332;DHT22;13284;52.748;13.452;2022-10-16T16:56:16;14.70;99.90
25332;DHT22;13284;52.748;13.452;2022-10-16T16:58:45;14.60;99.90
25332;DHT22;13284;52.748;13.452;2022-10-16T17:01:11;14.60;99.90
25332;DHT22;13284;52.748;13.452;2022-10-16T17:03:37;14.50;99.90
25332;DHT22;13284;52.748;13.452;2022-10-16T17:06:07;14.40;99.90
25332;DHT22;13284;52.748;13.452;2022-10-16T17:08:35;14.10;99.90
25332;DHT22;13284;52.748;13.452;2022-10-16T17:11:01;14.00;99.90
25332;DHT22;13284;52.748;13.452;2022-10-16T17:13:29;14.00;99.90
25332;DHT22;13284;52.748;13.452;2022-10-16T17:15:56;13.80;99.90
25332;DHT22;13284;52.748;13.452;2022-10-16T17:18:23;13.80;99.90